sensor_id;sensor_type;location;lat;lon;timestamp;pressure;altitude;pressure_sealevel;temperature;humidity
13080;BME280;6606;49.154;9.280;2023-08-21T00:00:26;100063.69;;;22.24;100.00
13080;BME280;6606;49.154;9.280;2023-08-21T00:03:08;100062.06;;;22.13;100.00
13080;BME280;6606;49.154;9.280;2023-08-21T00:05:50;100065.19;;;22.09;100.00
13080;BME280;6606;49.154;9.280;2023-08-21T00:08:32;100063.19;;;22.11;100.00
13080;BME280;6606;49.154;9.280;2023-08-21T00:11:13;100062.59;;;22.17;100.00
13080;BME280;6606;49.154;9.280;2023-08-21T00:13:55;100059.50;;;22.12;100.00
13080;BME280;6606;49.154;9.280;2023-08-21T00:16:38;100065.00;;;21.92;100.00
13080;BME280;6606;49.154;9.280;2023-08-21T00:19:20;100058.59;;;21.93;100.00
13080;BME280;6606;49.154;9.280;2023-08-21T00:22:02;100059.84;;;21.99;100.00
13080;BME280;6606;49.154;9.280;2023-08-21T00:24:43;100056.13;;;22.00;100.00
13080;BME280;6606;49.154;9.280;2023-08-21T00:27:25;100055.91;;;21.93;100.00
13080;BME280;6606;49.154;9.280;2023-08-21T00:30:09;100059.63;;;21.83;100.00
13080;BME280;6606;49.154;9.280;2023-08-21T00:32:52;100056.47;;;21.87;100.00
13080;BME280;6606;49.154;9.280;2023-08-21T00:35:34;100051.25;;;21.76;100.00
13080;BME280;6606;49.154;9.280;2023-08-21T00:38:16;100060.78;;;21.80;100.00
13080;BME280;6606;49.154;9.280;2023-08-21T00:40:58;100057.06;;;21.81;100.00
13080;BME280;6606;49.154;9.280;2023-08-21T00:43:40;100056.78;;;21.84;100.00
13080;BME280;6606;49.154;9.280;2023-08-21T00:46:22;100052.91;;;21.87;100.00
13080;BME280;6606;49.154;9.280;2023-08-21T00:49:06;100056.47;;;21.87;100.00
13080;BME280;6606;49.154;9.280;2023-08-21T00:51:49;100058.47;;;21.85;100.00
13080;BME280;6606;49.154;9.280;2023-08-21T00:54:31;100055.09;;;21.83;100.00
13080;BME280;6606;49.154;9.280;2023-08-21T00:57:14;100047.53;;;21.77;100.00
13080;BME280;6606;49.154;9.280;2023-08-21T00:59:56;100045.97;;;21.74;100.00
13080;BME280;6606;49.154;9.280;2023-08-21T01:02:37;100041.47;;;21.75;100.00
13080;BME280;6606;49.154;9.280;2023-08-21T01:05:22;100047.69;;;21.66;100.00
13080;BME280;6606;49.154;9.280;2023-08-21T01:08:07;100042.19;;;21.58;100.00
13080;BME280;6606;49.154;9.280;2023-08-21T01:10:53;100046.88;;;21.56;100.00
13080;BME280;6606;49.154;9.280;2023-08-21T01:13:46;100041.75;;;21.62;100.00
13080;BME280;6606;49.154;9.280;2023-08-21T01:16:29;100044.28;;;21.64;100.00
13080;BME280;6606;49.154;9.280;2023-08-21T01:19:21;100048.00;;;21.63;100.00
13080;BME280;6606;49.154;9.280;2023-08-21T01:22:07;100051.75;;;21.52;100.00
13080;BME280;6606;49.154;9.280;2023-08-21T01:24:51;100049.75;;;21.54;100.00
13080;BME280;6606;49.154;9.280;2023-08-21T01:27:33;100049.75;;;21.54;100.00
13080;BME280;6606;49.154;9.280;2023-08-21T01:30:16;100051.75;;;21.52;100.00
13080;BME280;6606;49.154;9.280;2023-08-21T01:33:01;100049.75;;;21.44;100.00
13080;BME280;6606;49.154;9.280;2023-08-21T01:35:46;100056.44;;;21.40;100.00
13080;BME280;6606;49.154;9.280;2023-08-21T01:38:29;100049.22;;;21.31;100.00
13080;BME280;6606;49.154;9.280;2023-08-21T01:41:12;100047.53;;;21.30;100.00
13080;BME280;6606;49.154;9.280;2023-08-21T01:43:54;100049.81;;;21.25;100.00
13080;BME280;6606;49.154;9.280;2023-08-21T01:46:35;100047.66;;;21.28;100.00
13080;BME280;6606;49.154;9.280;2023-08-21T01:49:17;100045.56;;;21.13;100.00
13080;BME280;6606;49.154;9.280;2023-08-21T01:52:00;100043.31;;;20.98;100.00
13080;BME280;6606;49.154;9.280;2023-08-21T01:54:42;100041.88;;;20.94;100.00
13080;BME280;6606;49.154;9.280;2023-08-21T01:57:25;100041.44;;;20.89;100.00
13080;BME280;6606;49.154;9.280;2023-08-21T02:00:07;100037.19;;;20.96;100.00
13080;BME280;6606;49.154;9.280;2023-08-21T02:02:58;100038.47;;;21.02;100.00
13080;BME280;6606;49.154;9.280;2023-08-21T02:05:40;100044.00;;;21.00;100.00
13080;BME280;6606;49.154;9.280;2023-08-21T02:08:22;100043.41;;;20.87;100.00
13080;BME280;6606;49.154;9.280;2023-08-21T02:11:04;100040.88;;;20.85;100.00
13080;BME280;6606;49.154;9.280;2023-08-21T02:13:47;100041.16;;;20.92;100.00
13080;BME280;6606;49.154;9.280;2023-08-21T02:16:29;100041.84;;;20.84;100.00
13080;BME280;6606;49.154;9.280;2023-08-21T02:19:10;100043.88;;;20.92;100.00
13080;BME280;6606;49.154;9.280;2023-08-21T02:21:52;100047.69;;;20.90;100.00
13080;BME280;6606;49.154;9.280;2023-08-21T02:24:34;100042.97;;;20.82;100.00
13080;BME280;6606;49.154;9.280;2023-08-21T02:27:16;100049.09;;;20.84;100.00
13080;BME280;6606;49.154;9.280;2023-08-21T02:29:59;100053.22;;;20.88;100.00
13080;BME280;6606;49.154;9.280;2023-08-21T02:32:40;100061.88;;;20.82;100.00
13080;BME280;6606;49.154;9.280;2023-08-21T02:35:22;100059.59;;;20.68;100.00
13080;BME280;6606;49.154;9.280;2023-08-21T02:38:04;100054.94;;;20.70;100.00
13080;BME280;6606;49.154;9.280;2023-08-21T02:40:50;100057.91;;;20.67;100.00
13080;BME280;6606;49.154;9.280;2023-08-21T02:43:31;100062.44;;;20.66;100.00
13080;BME280;6606;49.154;9.280;2023-08-21T02:46:14;100056.63;;;20.71;100.00
13080;BME280;6606;49.154;9.280;2023-08-21T02:48:57;100058.34;;;20.72;100.00
13080;BME280;6606;49.154;9.280;2023-08-21T02:51:39;100060.31;;;20.70;100.00
13080;BME280;6606;49.154;9.280;2023-08-21T02:54:21;100058.88;;;20.65;100.00
13080;BME280;6606;49.154;9.280;2023-08-21T02:57:03;100058.34;;;20.72;100.00
13080;BME280;6606;49.154;9.280;2023-08-21T02:59:46;100049.81;;;20.67;100.00
13080;BME280;6606;49.154;9.280;2023-08-21T03:02:29;100052.66;;;20.65;100.00
13080;BME280;6606;49.154;9.280;2023-08-21T03:05:11;100047.53;;;20.62;100.00
13080;BME280;6606;49.154;9.280;2023-08-21T03:07:53;100060.59;;;20.57;100.00
13080;BME280;6606;49.154;9.280;2023-08-21T03:10:35;100053.22;;;20.59;100.00
13080;BME280;6606;49.154;9.280;2023-08-21T03:13:17;100060.03;;;20.63;100.00
13080;BME280;6606;49.154;9.280;2023-08-21T03:15:59;100064.84;;;20.59;100.00
13080;BME280;6606;49.154;9.280;2023-08-21T03:18:55;100064.13;;;20.57;100.00
13080;BME280;6606;49.154;9.280;2023-08-21T03:21:38;100061.72;;;20.54;100.00
13080;BME280;6606;49.154;9.280;2023-08-21T03:24:19;100073.53;;;20.53;100.00
13080;BME280;6606;49.154;9.280;2023-08-21T03:27:03;100070.53;;;20.47;100.00
13080;BME280;6606;49.154;9.280;2023-08-21T03:29:45;100072.19;;;20.28;100.00
13080;BME280;6606;49.154;9.280;2023-08-21T03:32:29;100067.63;;;20.29;100.00
13080;BME280;6606;49.154;9.280;2023-08-21T03:35:12;100079.31;;;20.39;100.00
13080;BME280;6606;49.154;9.280;2023-08-21T03:37:54;100069.97;;;20.43;100.00
13080;BME280;6606;49.154;9.280;2023-08-21T03:40:39;100079.91;;;20.42;100.00
13080;BME280;6606;49.154;9.280;2023-08-21T03:43:20;100078.75;;;20.45;100.00
13080;BME280;6606;49.154;9.280;2023-08-21T03:46:02;100078.06;;;20.43;100.00
13080;BME280;6606;49.154;9.280;2023-08-21T03:48:44;100080.75;;;20.43;100.00
13080;BME280;6606;49.154;9.280;2023-08-21T03:51:27;100080.16;;;20.30;100.00
13080;BME280;6606;49.154;9.280;2023-08-21T03:54:10;100080.16;;;20.30;100.00
13080;BME280;6606;49.154;9.280;2023-08-21T03:56:52;100083.28;;;20.35;100.00
13080;BME280;6606;49.154;9.280;2023-08-21T03:59:36;100082.56;;;20.33;100.00
13080;BME280;6606;49.154;9.280;2023-08-21T04:02:18;100081.28;;;20.37;100.00
13080;BME280;6606;49.154;9.280;2023-08-21T04:04:59;100084.41;;;20.32;100.00
13080;BME280;6606;49.154;9.280;2023-08-21T04:07:43;100083.53;;;20.32;100.00
13080;BME280;6606;49.154;9.280;2023-08-21T04:10:25;100082.56;;;20.33;100.00
13080;BME280;6606;49.154;9.280;2023-08-21T04:13:06;100079.88;;;20.33;100.00
13080;BME280;6606;49.154;9.280;2023-08-21T04:15:49;100083.53;;;20.32;100.00
13080;BME280;6606;49.154;9.280;2023-08-21T04:18:31;100090.06;;;20.29;100.00
13080;BME280;6606;49.154;9.280;2023-08-21T04:21:13;100089.22;;;20.29;100.00
13080;BME280;6606;49.154;9.280;2023-08-21T04:23:57;100088.78;;;20.24;100.00
13080;BME280;6606;49.154;9.280;2023-08-21T04:26:38;100093.72;;;20.18;100.00
13080;BME280;6606;49.154;9.280;2023-08-21T04:29:20;100089.78;;;20.23;100.00
13080;BME280;6606;49.154;9.280;2023-08-21T04:32:02;100096.47;;;20.28;100.00
13080;BME280;6606;49.154;9.280;2023-08-21T04:34:44;100096.63;;;20.27;100.00
13080;BME280;6606;49.154;9.280;2023-08-21T04:37:26;100095.34;;;20.31;100.00
13080;BME280;6606;49.154;9.280;2023-08-21T04:40:10;100088.41;;;20.38;100.00
13080;BME280;6606;49.154;9.280;2023-08-21T04:42:53;100089.81;;;20.42;100.00
13080;BME280;6606;49.154;9.280;2023-08-21T04:45:36;100095.50;;;20.39;100.00
13080;BME280;6606;49.154;9.280;2023-08-21T04:48:18;100092.50;;;20.42;100.00
13080;BME280;6606;49.154;9.280;2023-08-21T04:51:02;100088.56;;;20.46;100.00
13080;BME280;6606;49.154;9.280;2023-08-21T04:53:44;100094.41;;;20.51;100.00
13080;BME280;6606;49.154;9.280;2023-08-21T04:56:32;100097.66;;;20.55;100.00
13080;BME280;6606;49.154;9.280;2023-08-21T04:59:14;100095.28;;;20.61;100.00
13080;BME280;6606;49.154;9.280;2023-08-21T05:01:55;100099.78;;;20.61;100.00
13080;BME280;6606;49.154;9.280;2023-08-21T05:04:37;100101.66;;;20.60;100.00
13080;BME280;6606;49.154;9.280;2023-08-21T05:07:19;100104.94;;;20.74;100.00
13080;BME280;6606;49.154;9.280;2023-08-21T05:10:01;100100.41;;;20.84;100.00
13080;BME280;6606;49.154;9.280;2023-08-21T05:12:47;100104.00;;;20.94;100.00
13080;BME280;6606;49.154;9.280;2023-08-21T05:15:29;100098.47;;;20.96;100.00
13080;BME280;6606;49.154;9.280;2023-08-21T05:18:11;100112.66;;;21.07;100.00
13080;BME280;6606;49.154;9.280;2023-08-21T05:20:54;100110.38;;;21.13;100.00
13080;BME280;6606;49.154;9.280;2023-08-21T05:23:37;100110.69;;;21.19;100.00
13080;BME280;6606;49.154;9.280;2023-08-21T05:26:21;100118.94;;;21.27;100.00
13080;BME280;6606;49.154;9.280;2023-08-21T05:29:04;100117.50;;;21.33;100.00
13080;BME280;6606;49.154;9.280;2023-08-21T05:31:46;100125.72;;;21.41;100.00
13080;BME280;6606;49.154;9.280;2023-08-21T05:34:28;100123.44;;;21.46;100.00
13080;BME280;6606;49.154;9.280;2023-08-21T05:37:10;100126.28;;;21.55;100.00
13080;BME280;6606;49.154;9.280;2023-08-21T05:39:53;100129.69;;;21.57;100.00
13080;BME280;6606;49.154;9.280;2023-08-21T05:42:35;100127.69;;;21.59;100.00
13080;BME280;6606;49.154;9.280;2023-08-21T05:45:18;100133.94;;;21.69;100.00
13080;BME280;6606;49.154;9.280;2023-08-21T05:48:00;100136.66;;;21.69;100.00
13080;BME280;6606;49.154;9.280;2023-08-21T05:50:42;100136.25;;;21.54;100.00
13080;BME280;6606;49.154;9.280;2023-08-21T05:53:23;100133.09;;;21.59;100.00
13080;BME280;6606;49.154;9.280;2023-08-21T05:56:07;100142.47;;;21.74;100.00
13080;BME280;6606;49.154;9.280;2023-08-21T05:58:49;100135.31;;;21.92;100.00
13080;BME280;6606;49.154;9.280;2023-08-21T06:01:32;100131.44;;;22.05;100.00
13080;BME280;6606;49.154;9.280;2023-08-21T06:04:14;100136.97;;;22.13;100.00
13080;BME280;6606;49.154;9.280;2023-08-21T06:06:59;100144.34;;;22.21;100.00
13080;BME280;6606;49.154;9.280;2023-08-21T06:09:41;100146.09;;;22.39;100.00
13080;BME280;6606;49.154;9.280;2023-08-21T06:12:22;100145.06;;;22.50;100.00
13080;BME280;6606;49.154;9.280;2023-08-21T06:15:05;100151.94;;;22.45;100.00
13080;BME280;6606;49.154;9.280;2023-08-21T06:17:49;100147.34;;;22.55;100.00
13080;BME280;6606;49.154;9.280;2023-08-21T06:20:31;100149.28;;;22.63;100.00
13080;BME280;6606;49.154;9.280;2023-08-21T06:23:13;100156.03;;;22.76;100.00
13080;BME280;6606;49.154;9.280;2023-08-21T06:25:55;100159.38;;;22.88;100.00
13080;BME280;6606;49.154;9.280;2023-08-21T06:28:38;100159.72;;;23.03;100.00
13080;BME280;6606;49.154;9.280;2023-08-21T06:31:19;100170.34;;;23.14;100.00
13080;BME280;6606;49.154;9.280;2023-08-21T06:34:03;100152.78;;;23.18;100.00
13080;BME280;6606;49.154;9.280;2023-08-21T06:36:45;100161.25;;;23.41;100.00
13080;BME280;6606;49.154;9.280;2023-08-21T06:39:27;100169.72;;;23.56;100.00
13080;BME280;6606;49.154;9.280;2023-08-21T06:42:08;100164.84;;;23.42;100.00
13080;BME280;6606;49.154;9.280;2023-08-21T06:44:59;100165.97;;;23.57;100.00
13080;BME280;6606;49.154;9.280;2023-08-21T06:47:41;100169.22;;;23.79;100.00
13080;BME280;6606;49.154;9.280;2023-08-21T06:50:24;100167.28;;;23.71;100.00
13080;BME280;6606;49.154;9.280;2023-08-21T06:53:06;100174.06;;;23.75;100.00
13080;BME280;6606;49.154;9.280;2023-08-21T06:55:48;100171.03;;;23.96;100.00
13080;BME280;6606;49.154;9.280;2023-08-21T06:58:30;100167.75;;;24.10;100.00
13080;BME280;6606;49.154;9.280;2023-08-21T07:01:12;100166.69;;;24.03;100.00
13080;BME280;6606;49.154;9.280;2023-08-21T07:03:53;100175.53;;;24.05;100.00
13080;BME280;6606;49.154;9.280;2023-08-21T07:06:36;100175.19;;;24.08;100.00
13080;BME280;6606;49.154;9.280;2023-08-21T07:09:18;100176.34;;;24.32;100.00
13080;BME280;6606;49.154;9.280;2023-08-21T07:12:00;100179.81;;;24.50;100.00
13080;BME280;6606;49.154;9.280;2023-08-21T07:14:42;100177.41;;;24.82;100.00
13080;BME280;6606;49.154;9.280;2023-08-21T07:17:24;100176.94;;;24.94;100.00
13080;BME280;6606;49.154;9.280;2023-08-21T07:20:07;100181.94;;;26.61;100.00
13080;BME280;6606;49.154;9.280;2023-08-21T07:22:50;100184.69;;;29.83;100.00
13080;BME280;6606;49.154;9.280;2023-08-21T07:25:32;100188.66;;;31.59;100.00
13080;BME280;6606;49.154;9.280;2023-08-21T07:28:14;100171.28;;;33.60;100.00
13080;BME280;6606;49.154;9.280;2023-08-21T07:30:56;100172.75;;;34.68;100.00
13080;BME280;6606;49.154;9.280;2023-08-21T07:33:38;100179.66;;;35.26;88.98
13080;BME280;6606;49.154;9.280;2023-08-21T07:36:20;100176.72;;;35.21;82.38
13080;BME280;6606;49.154;9.280;2023-08-21T07:39:03;100176.34;;;35.48;82.93
13080;BME280;6606;49.154;9.280;2023-08-21T07:41:45;100175.06;;;35.62;78.69
13080;BME280;6606;49.154;9.280;2023-08-21T07:44:27;100172.94;;;35.76;73.07
13080;BME280;6606;49.154;9.280;2023-08-21T07:47:08;100172.09;;;36.86;72.99
13080;BME280;6606;49.154;9.280;2023-08-21T07:49:50;100171.41;;;37.87;61.99
13080;BME280;6606;49.154;9.280;2023-08-21T07:52:32;100171.25;;;37.77;59.26
13080;BME280;6606;49.154;9.280;2023-08-21T07:55:15;100171.44;;;37.25;59.52
13080;BME280;6606;49.154;9.280;2023-08-21T07:57:57;100175.94;;;37.43;61.85
13080;BME280;6606;49.154;9.280;2023-08-21T08:00:38;100175.31;;;37.57;59.92
13080;BME280;6606;49.154;9.280;2023-08-21T08:03:20;100166.78;;;38.48;56.58
13080;BME280;6606;49.154;9.280;2023-08-21T08:06:02;100166.13;;;38.85;55.90
13080;BME280;6606;49.154;9.280;2023-08-21T08:08:44;100169.56;;;38.10;53.60
13080;BME280;6606;49.154;9.280;2023-08-21T08:11:27;100167.03;;;37.91;56.94
13080;BME280;6606;49.154;9.280;2023-08-21T08:14:09;100161.13;;;38.21;56.75
13080;BME280;6606;49.154;9.280;2023-08-21T08:16:51;100170.44;;;37.31;57.44
13080;BME280;6606;49.154;9.280;2023-08-21T08:19:32;100160.69;;;37.74;55.99
13080;BME280;6606;49.154;9.280;2023-08-21T08:22:14;100161.47;;;37.12;60.32
13080;BME280;6606;49.154;9.280;2023-08-21T08:24:56;100160.31;;;37.70;58.00
13080;BME280;6606;49.154;9.280;2023-08-21T08:27:39;100157.72;;;36.61;63.62
13080;BME280;6606;49.154;9.280;2023-08-21T08:30:21;100153.63;;;35.04;74.12
13080;BME280;6606;49.154;9.280;2023-08-21T08:33:04;100153.19;;;32.69;100.00
13080;BME280;6606;49.154;9.280;2023-08-21T08:35:46;100150.22;;;31.52;100.00
13080;BME280;6606;49.154;9.280;2023-08-21T08:38:29;100149.63;;;30.76;100.00
13080;BME280;6606;49.154;9.280;2023-08-21T08:41:12;100146.28;;;30.39;100.00
13080;BME280;6606;49.154;9.280;2023-08-21T08:43:57;100148.84;;;30.47;100.00
13080;BME280;6606;49.154;9.280;2023-08-21T08:46:39;100151.44;;;30.62;100.00
13080;BME280;6606;49.154;9.280;2023-08-21T08:49:21;100143.56;;;30.45;100.00
13080;BME280;6606;49.154;9.280;2023-08-21T08:52:04;100148.84;;;30.47;100.00
13080;BME280;6606;49.154;9.280;2023-08-21T08:54:47;100141.88;;;30.44;100.00
13080;BME280;6606;49.154;9.280;2023-08-21T08:57:29;100139.56;;;30.48;100.00
13080;BME280;6606;49.154;9.280;2023-08-21T09:00:14;100138.34;;;30.16;100.00
13080;BME280;6606;49.154;9.280;2023-08-21T09:02:56;100142.47;;;30.40;100.00
13080;BME280;6606;49.154;9.280;2023-08-21T09:05:39;100140.06;;;30.17;100.00
13080;BME280;6606;49.154;9.280;2023-08-21T09:08:21;100139.81;;;30.12;100.00
13080;BME280;6606;49.154;9.280;2023-08-21T09:11:02;100134.56;;;29.89;100.00
13080;BME280;6606;49.154;9.280;2023-08-21T09:13:44;100130.47;;;30.06;100.00
13080;BME280;6606;49.154;9.280;2023-08-21T09:16:28;100141.97;;;30.23;100.00
13080;BME280;6606;49.154;9.280;2023-08-21T09:19:09;100139.34;;;30.08;100.00
13080;BME280;6606;49.154;9.280;2023-08-21T09:21:51;100131.00;;;29.95;100.00
13080;BME280;6606;49.154;9.280;2023-08-21T09:24:33;100133.41;;;30.39;100.00
13080;BME280;6606;49.154;9.280;2023-08-21T09:27:16;100135.53;;;30.85;100.00
13080;BME280;6606;49.154;9.280;2023-08-21T09:29:58;100136.59;;;30.91;100.00
13080;BME280;6606;49.154;9.280;2023-08-21T09:32:54;100130.53;;;31.22;100.00
13080;BME280;6606;49.154;9.280;2023-08-21T09:35:36;100138.34;;;31.19;100.00
13080;BME280;6606;49.154;9.280;2023-08-21T09:38:18;100133.44;;;31.07;100.00
13080;BME280;6606;49.154;9.280;2023-08-21T09:41:00;100135.75;;;30.91;100.00
13080;BME280;6606;49.154;9.280;2023-08-21T09:43:43;100131.75;;;31.06;100.00
13080;BME280;6606;49.154;9.280;2023-08-21T09:46:25;100133.50;;;31.27;100.00
13080;BME280;6606;49.154;9.280;2023-08-21T09:49:09;100128.47;;;31.58;100.00
13080;BME280;6606;49.154;9.280;2023-08-21T09:51:52;100129.91;;;31.67;100.00
13080;BME280;6606;49.154;9.280;2023-08-21T09:54:35;100130.78;;;31.67;100.00
13080;BME280;6606;49.154;9.280;2023-08-21T09:57:17;100126.34;;;31.46;100.00
13080;BME280;6606;49.154;9.280;2023-08-21T09:59:59;100121.69;;;31.47;100.00
13080;BME280;6606;49.154;9.280;2023-08-21T10:02:54;100122.53;;;31.61;100.00
13080;BME280;6606;49.154;9.280;2023-08-21T10:05:41;100123.13;;;31.96;100.00
13080;BME280;6606;49.154;9.280;2023-08-21T10:08:24;100115.25;;;32.19;100.00
13080;BME280;6606;49.154;9.280;2023-08-21T10:11:07;100115.78;;;31.83;100.00
13080;BME280;6606;49.154;9.280;2023-08-21T10:13:50;100105.63;;;31.97;100.00
13080;BME280;6606;49.154;9.280;2023-08-21T10:16:32;100097.13;;;32.05;100.00
13080;BME280;6606;49.154;9.280;2023-08-21T10:19:14;100104.75;;;32.10;100.00
13080;BME280;6606;49.154;9.280;2023-08-21T10:21:57;100101.19;;;31.89;100.00
13080;BME280;6606;49.154;9.280;2023-08-21T10:24:40;100101.41;;;31.68;100.00
13080;BME280;6606;49.154;9.280;2023-08-21T10:27:29;100097.81;;;31.54;100.00
13080;BME280;6606;49.154;9.280;2023-08-21T10:30:19;100093.56;;;31.85;100.00
13080;BME280;6606;49.154;9.280;2023-08-21T10:33:01;100092.53;;;31.79;100.00
13080;BME280;6606;49.154;9.280;2023-08-21T10:35:43;100079.16;;;32.03;99.39
13080;BME280;6606;49.154;9.280;2023-08-21T10:38:26;100090.28;;;32.34;100.00
13080;BME280;6606;49.154;9.280;2023-08-21T10:41:08;100089.44;;;32.34;99.43
13080;BME280;6606;49.154;9.280;2023-08-21T10:43:51;100083.72;;;32.80;100.00
13080;BME280;6606;49.154;9.280;2023-08-21T10:46:50;100082.41;;;32.90;94.09
13080;BME280;6606;49.154;9.280;2023-08-21T10:49:32;100088.56;;;33.17;100.00
13080;BME280;6606;49.154;9.280;2023-08-21T10:52:14;100085.94;;;33.28;100.00
13080;BME280;6606;49.154;9.280;2023-08-21T10:54:59;100082.97;;;33.23;89.33
13080;BME280;6606;49.154;9.280;2023-08-21T10:57:41;100083.06;;;33.17;90.20
13080;BME280;6606;49.154;9.280;2023-08-21T11:00:23;100074.25;;;33.01;92.19
13080;BME280;6606;49.154;9.280;2023-08-21T11:03:05;100068.78;;;33.26;93.96
13080;BME280;6606;49.154;9.280;2023-08-21T11:06:00;100076.31;;;33.63;89.19
13080;BME280;6606;49.154;9.280;2023-08-21T11:08:41;100076.34;;;33.38;77.72
13080;BME280;6606;49.154;9.280;2023-08-21T11:11:25;100070.59;;;33.39;76.38
13080;BME280;6606;49.154;9.280;2023-08-21T11:14:06;100075.06;;;33.40;83.47
13080;BME280;6606;49.154;9.280;2023-08-21T11:16:48;100074.00;;;33.60;76.94
13080;BME280;6606;49.154;9.280;2023-08-21T11:19:31;100072.22;;;33.47;74.67
13080;BME280;6606;49.154;9.280;2023-08-21T11:22:13;100068.09;;;33.38;78.73
13080;BME280;6606;49.154;9.280;2023-08-21T11:24:54;100075.31;;;33.57;75.37
13080;BME280;6606;49.154;9.280;2023-08-21T11:27:37;100069.34;;;33.60;76.39
13080;BME280;6606;49.154;9.280;2023-08-21T11:30:22;100063.41;;;33.38;70.76
13080;BME280;6606;49.154;9.280;2023-08-21T11:33:07;100062.94;;;33.41;81.15
13080;BME280;6606;49.154;9.280;2023-08-21T11:35:49;100064.13;;;33.52;76.71
13080;BME280;6606;49.154;9.280;2023-08-21T11:38:32;100053.56;;;33.92;79.58
13080;BME280;6606;49.154;9.280;2023-08-21T11:41:14;100064.16;;;33.70;71.34
13080;BME280;6606;49.154;9.280;2023-08-21T11:44:02;100062.78;;;33.61;68.67
13080;BME280;6606;49.154;9.280;2023-08-21T11:46:44;100065.97;;;34.02;70.10
13080;BME280;6606;49.154;9.280;2023-08-21T11:49:25;100067.50;;;34.34;72.44
13080;BME280;6606;49.154;9.280;2023-08-21T11:52:07;100056.59;;;34.03;68.34
13080;BME280;6606;49.154;9.280;2023-08-21T11:54:51;100060.53;;;34.32;67.82
13080;BME280;6606;49.154;9.280;2023-08-21T11:57:33;100062.69;;;34.11;68.96
13080;BME280;6606;49.154;9.280;2023-08-21T12:00:17;100060.66;;;34.00;69.63
13080;BME280;6606;49.154;9.280;2023-08-21T12:03:02;100059.94;;;34.30;66.34
13080;BME280;6606;49.154;9.280;2023-08-21T12:05:47;100061.75;;;34.18;61.07
13080;BME280;6606;49.154;9.280;2023-08-21T12:08:28;100067.59;;;34.58;64.25
13080;BME280;6606;49.154;9.280;2023-08-21T12:11:10;100059.09;;;34.59;63.29
13080;BME280;6606;49.154;9.280;2023-08-21T12:13:52;100056.44;;;34.16;58.81
13080;BME280;6606;49.154;9.280;2023-08-21T12:16:35;100058.97;;;34.54;57.99
13080;BME280;6606;49.154;9.280;2023-08-21T12:19:17;100059.47;;;34.93;60.85
13080;BME280;6606;49.154;9.280;2023-08-21T12:21:59;100056.63;;;34.70;58.44
13080;BME280;6606;49.154;9.280;2023-08-21T12:24:41;100050.84;;;34.71;57.97
13080;BME280;6606;49.154;9.280;2023-08-21T12:27:23;100048.75;;;35.27;56.29
13080;BME280;6606;49.154;9.280;2023-08-21T12:30:07;100041.88;;;34.76;56.13
13080;BME280;6606;49.154;9.280;2023-08-21T12:32:50;100046.19;;;34.72;54.09
13080;BME280;6606;49.154;9.280;2023-08-21T12:35:31;100037.66;;;34.73;55.24
13080;BME280;6606;49.154;9.280;2023-08-21T12:38:13;100031.16;;;34.56;56.28
13080;BME280;6606;49.154;9.280;2023-08-21T12:40:55;100039.31;;;34.14;52.69
13080;BME280;6606;49.154;9.280;2023-08-21T12:43:36;100029.97;;;34.15;55.21
13080;BME280;6606;49.154;9.280;2023-08-21T12:46:18;100029.88;;;34.22;54.17
13080;BME280;6606;49.154;9.280;2023-08-21T12:49:01;100027.00;;;33.98;56.12
13080;BME280;6606;49.154;9.280;2023-08-21T12:51:43;100021.69;;;33.97;56.74
13080;BME280;6606;49.154;9.280;2023-08-21T12:54:25;100021.31;;;34.30;64.63
13080;BME280;6606;49.154;9.280;2023-08-21T12:57:07;100021.94;;;34.74;61.38
13080;BME280;6606;49.154;9.280;2023-08-21T12:59:49;100023.88;;;35.27;56.44
13080;BME280;6606;49.154;9.280;2023-08-21T13:02:31;100017.88;;;35.54;55.11
13080;BME280;6606;49.154;9.280;2023-08-21T13:05:14;100015.84;;;35.37;51.57
13080;BME280;6606;49.154;9.280;2023-08-21T13:07:56;100013.78;;;35.56;50.56
13080;BME280;6606;49.154;9.280;2023-08-21T13:10:38;100004.22;;;35.35;48.83
13080;BME280;6606;49.154;9.280;2023-08-21T13:13:19;100015.53;;;34.80;51.55
13080;BME280;6606;49.154;9.280;2023-08-21T13:16:01;100003.34;;;35.47;50.52
13080;BME280;6606;49.154;9.280;2023-08-21T13:18:43;99998.75;;;35.64;47.99
13080;BME280;6606;49.154;9.280;2023-08-21T13:21:27;99998.19;;;35.74;52.29
13080;BME280;6606;49.154;9.280;2023-08-21T13:24:08;99995.19;;;35.52;51.62
13080;BME280;6606;49.154;9.280;2023-08-21T13:26:50;99997.56;;;35.60;51.48
13080;BME280;6606;49.154;9.280;2023-08-21T13:29:32;99993.00;;;35.77;52.08
13080;BME280;6606;49.154;9.280;2023-08-21T13:32:13;99990.56;;;35.69;53.71
13080;BME280;6606;49.154;9.280;2023-08-21T13:34:55;99988.69;;;35.58;51.27
13080;BME280;6606;49.154;9.280;2023-08-21T13:37:39;99988.38;;;35.95;48.82
13080;BME280;6606;49.154;9.280;2023-08-21T13:40:20;99990.81;;;35.79;49.98
13080;BME280;6606;49.154;9.280;2023-08-21T13:43:02;99987.47;;;35.77;52.86
13080;BME280;6606;49.154;9.280;2023-08-21T13:45:44;99986.91;;;35.28;52.04
13080;BME280;6606;49.154;9.280;2023-08-21T13:48:26;99981.78;;;35.72;53.02
13080;BME280;6606;49.154;9.280;2023-08-21T13:51:08;99983.38;;;35.68;49.89
13080;BME280;6606;49.154;9.280;2023-08-21T13:53:51;99973.75;;;35.59;48.61
13080;BME280;6606;49.154;9.280;2023-08-21T13:56:32;99964.97;;;35.85;49.30
13080;BME280;6606;49.154;9.280;2023-08-21T13:59:14;99979.47;;;36.04;51.34
13080;BME280;6606;49.154;9.280;2023-08-21T14:01:56;99973.78;;;36.11;48.70
13080;BME280;6606;49.154;9.280;2023-08-21T14:04:38;99963.06;;;35.74;48.40
13080;BME280;6606;49.154;9.280;2023-08-21T14:07:19;99964.22;;;35.38;52.78
13080;BME280;6606;49.154;9.280;2023-08-21T14:10:03;99956.00;;;35.55;52.76
13080;BME280;6606;49.154;9.280;2023-08-21T14:12:45;99961.53;;;35.55;50.67
13080;BME280;6606;49.154;9.280;2023-08-21T14:15:27;99961.34;;;35.33;52.04